Strona główna
METAR-TAF:

METAR-TAF

Lotnisko :

Fort-de-France, Martynika

Port lotniczy Martynika

Szerokość geograficzna: 14-36N, Długość geograficzna: 061-00W, wysokość: 5 m

Aktualna obserwacja pogody

Raport powstał 25 minut temu, godzina 07:30 UTC
Wiatr 7 kt od wschód
Temperatura 25°C
Wilgotność 83%
Ciśnienie 1013 hPa
Widzialność 10 km lub więcej
Mało chmury na wysokości 2200 ft
Rozproszone chmury na wysokości 3900 ft

METAR: TFFF 160730Z AUTO 09007KT 9999 FEW022 SCT039 25/22 Q1013 TEMPO 4000 SHRA FEW018TCU

czas: 03:55 (07:55 UTC)

Prognoza

Raport powstał 2 godziny i 55 minut temu, godzina 05:00 UTC
Prognoza ważna od 16 godzina 06 UTC do 17 godzina 06 UTC
Wiatr 7 kt od wschód
Widzialność 10 km lub więcej
Rozproszone chmury na wysokości 2800 ft
Przejściowo
od 16 godzina 06 UTC do 16 godzina 18 UTC
Widzialność: 4000 m
Mało chmury na wysokości 1800 ft, Cumulusy wypiętrznone.
przelotny opad deszczu

TAF: TFFF 160500Z 1606/1706 09007KT 9999 SCT028 TEMPO 1606/1618 4000 SHRA FEW018TCU

Obserwacja i prognoza pogody dla ponad 4000 lotnisk (raport METAR i TAF).

Dostępne stacje oznaczono żółtymi i czerwonymi punktami na mapie.

Najedź kursorem aby zobaczyć nazwę stacji.

Kliknij aby zobaczyć obserwacje i prognozy pogody.

Aby zmienić mapę: kliknij na zielony przycisk z czarnym krzyżykiem, aby powiększyć; na zielony przycisk z myślnikiem, aby pomniejszyć; na zielone strzałki, aby przejść do map sąsiednich.


METAR-TAF: